الصفحة الرئيسية
METAR-TAF:

METAR-TAF

مطار :

مطار كوتا كينابالو الدولي

كوتا كينابالو, ماليزيا

دائرة عرض: 05-56N, خط طول: 116-03E, ارتفاع: 3 متر

مراقبة الطقس الحالي

تاريخ ووقت الإصدار 37 دقيقة قبل الساعة 20:30UTC
ريح 5 عقدة من الشرق/الجنوب الشرقي
درجة الحرارة 26°درجة مئوية
الرطوبة 84%
ضغط 1010 hPa
الرؤية 10 كم أو أكثر
غيوم قليلة على ارتفاع 1400 قدم

METAR: WBKK 292030Z 11005KT 9999 FEW014 26/23 Q1010 NOSIG

زمن: 05:07 (21:07 UTC)

توقعات

تاريخ ووقت الإصدار 4ساعات و 7 دقيقة قبل الساعة 17:00UTC
التوقعات صالحة من29 الساعة 18 UTC إلى 30 الساعة 18 UTC
ريح 5 عقدة من الشرق/الجنوب الشرقي
الرؤية 10 كم أو أكثر
غيوم قليلة على ارتفاع 1500 قدم
أصبح
من 30 الساعة 03 UTC إلى 30 الساعة 05 UTC
ريح 7 عقدة من الشمال الغربي
مؤقت
من 30 الساعة 04 UTC إلى 30 الساعة 08 UTC
الرؤية: 5000 متر
غيوم قليلة على ارتفاع 1400 قدم
غيوم قليلة على ارتفاع 1600 قدم, مزنة ركامية.
عاصفة رعدية, مطر

TAF: WBKK 291700Z 2918/3018 11005KT 9999 FEW015 BECMG 3003/3005 32007KT TEMPO 3004/3008 5000 TSRA FEW014 FEW016CB

أرصاد الطقس والتوقعات من أكثر من 4000 مطار (تقارير الطقس للمطار METAR والتنبؤ بالطقس بالمطارTAF).

المحطات المتاحة هي النقط الصفراء والحمراء على الخريطة.

حرك المؤشر فوق النقطة لمعرفة اسم المحطة.

ثم انقر لمعرفة أرصاد وتوقعات الطقس.

لتغيير الخارطة: اضغط على الأزرار الخضراء مع رمز الصليب الأسود للتكبير. على الزر الأخضر مع شرطة للتصغير، أو على الأسهم الخضراء للخرائط المجاورة.


METAR-TAF: